Time;durP1;ratioP1;P1;durP2;ratioP2;P2;SDS_P1;SDS_P2;PMS_P1;PMS_P2;Temp;Humidity;BMP_temperature;BMP_pressure;BME280_temperature;BME280_humidity;BME280_pressure;Samples;Min_cycle;Max_cycle;Signal;HPM_P1;HPM_P2
2023/11/17 00:00:36;;;;;;;21.40;13.40;;;22.00;59.20;;;;;;5071519;28;20210;-67
2023/11/17 00:03:01;;;;;;;19.53;12.83;;;21.90;59.10;;;;;;5072950;28;20205;-68
2023/11/17 00:05:27;;;;;;;18.93;13.30;;;21.90;59.10;;;;;;5072795;28;20178;-69
2023/11/17 00:07:54;;;;;;;20.07;12.77;;;21.90;59.00;;;;;;5072902;28;20661;-67
2023/11/17 00:10:20;;;;;;;21.50;14.27;;;21.90;59.00;;;;;;5072870;28;20518;-67
2023/11/17 00:12:45;;;;;;;18.50;12.17;;;21.90;59.00;;;;;;5072744;28;20415;-67
2023/11/17 00:15:12;;;;;;;18.67;14.23;;;21.90;59.00;;;;;;5071319;28;20499;-67
2023/11/17 00:17:37;;;;;;;19.60;14.00;;;21.90;59.00;;;;;;5072407;28;20222;-66
2023/11/17 00:20:03;;;;;;;20.30;13.23;;;21.90;59.00;;;;;;5072924;28;20911;-66
2023/11/17 00:22:29;;;;;;;22.57;13.23;;;21.90;59.00;;;;;;5072693;28;20281;-65
2023/11/17 00:24:55;;;;;;;18.40;13.43;;;21.90;59.00;;;;;;5072508;28;20499;-69
2023/11/17 00:27:20;;;;;;;18.37;12.60;;;21.90;59.00;;;;;;5072682;28;20198;-67
2023/11/17 00:29:48;;;;;;;18.17;13.73;;;21.90;59.00;;;;;;5072487;28;20556;-67
2023/11/17 00:32:14;;;;;;;18.40;12.67;;;21.80;58.90;;;;;;5072618;28;20170;-66
2023/11/17 00:34:40;;;;;;;18.87;13.10;;;21.90;59.00;;;;;;5072466;28;20931;-67
2023/11/17 00:37:07;;;;;;;23.87;14.47;;;21.90;59.00;;;;;;5066089;28;20222;-67
2023/11/17 00:39:34;;;;;;;17.10;12.07;;;21.80;59.00;;;;;;5052262;28;20217;-68
2023/11/17 00:41:59;;;;;;;16.07;12.13;;;21.80;59.00;;;;;;5052428;28;20465;-67
2023/11/17 00:44:25;;;;;;;19.47;12.50;;;21.80;59.00;;;;;;5052301;28;20410;-67
2023/11/17 00:46:50;;;;;;;22.07;13.00;;;21.80;59.00;;;;;;5052082;28;20989;-67
2023/11/17 00:49:16;;;;;;;16.00;12.67;;;21.80;59.00;;;;;;5052273;28;20172;-68
2023/11/17 00:51:42;;;;;;;17.87;11.90;;;21.80;59.00;;;;;;5052059;28;20183;-67
2023/11/17 00:54:07;;;;;;;18.57;12.50;;;21.80;59.00;;;;;;5052006;28;20225;-68
2023/11/17 00:56:33;;;;;;;18.43;12.80;;;21.80;59.00;;;;;;5051900;28;20195;-67
2023/11/17 00:59:03;;;;;;;16.10;12.47;;;21.80;59.00;;;;;;5051867;28;20175;-68
2023/11/17 01:01:29;;;;;;;19.97;12.17;;;21.80;59.00;;;;;;5051816;28;20584;-67
2023/11/17 01:03:55;;;;;;;17.97;12.20;;;21.80;59.00;;;;;;5051234;28;20410;-67
2023/11/17 01:06:21;;;;;;;16.10;11.47;;;21.80;59.00;;;;;;5051707;28;20426;-67
2023/11/17 01:08:47;;;;;;;22.30;13.63;;;21.80;59.00;;;;;;5051701;28;20159;-67
2023/11/17 01:11:12;;;;;;;15.37;10.73;;;21.80;59.00;;;;;;5051634;28;20416;-68
2023/11/17 01:13:41;;;;;;;17.23;10.63;;;21.80;59.00;;;;;;5051618;28;20807;-66
2023/11/17 01:16:07;;;;;;;17.27;11.60;;;21.70;59.00;;;;;;5051534;28;20195;-66
2023/11/17 01:18:33;;;;;;;21.23;13.67;;;21.70;59.00;;;;;;5051556;28;20437;-67
2023/11/17 01:20:58;;;;;;;18.60;13.87;;;21.70;58.90;;;;;;5051659;28;20214;-68
2023/11/17 01:23:25;;;;;;;20.27;13.40;;;21.70;59.00;;;;;;5051684;28;20637;-67
2023/11/17 01:25:51;;;;;;;15.13;10.23;;;21.70;58.90;;;;;;5051347;28;20236;-67
2023/11/17 01:28:17;;;;;;;18.50;12.47;;;21.70;58.90;;;;;;5051322;28;20405;-68
2023/11/17 01:30:43;;;;;;;17.80;11.90;;;21.70;58.90;;;;;;5049955;28;20856;-67
2023/11/17 01:33:09;;;;;;;17.10;11.07;;;21.70;59.00;;;;;;5051315;28;20422;-67
2023/11/17 01:35:35;;;;;;;16.53;11.33;;;21.70;59.00;;;;;;5051140;28;20186;-67
2023/11/17 01:38:01;;;;;;;20.40;13.10;;;21.70;59.00;;;;;;5051208;28;20406;-68
2023/11/17 01:40:27;;;;;;;17.10;11.60;;;21.70;59.00;;;;;;5051034;28;20198;-67
2023/11/17 01:42:53;;;;;;;15.57;11.20;;;21.70;59.00;;;;;;5051201;28;20958;-66
2023/11/17 01:45:21;;;;;;;16.07;11.30;;;21.70;59.00;;;;;;5049565;28;20441;-67
2023/11/17 01:47:47;;;;;;;17.10;10.70;;;21.70;59.00;;;;;;5050908;28;20233;-68
2023/11/17 01:50:14;;;;;;;16.57;10.73;;;21.70;59.00;;;;;;5050929;28;20504;-68
2023/11/17 01:52:42;;;;;;;16.83;11.10;;;21.70;59.00;;;;;;5051081;28;20421;-68
2023/11/17 01:55:08;;;;;;;14.13;11.30;;;21.60;58.90;;;;;;5050750;28;20414;-67
2023/11/17 01:57:38;;;;;;;14.53;11.00;;;21.70;59.00;;;;;;5050954;28;20775;-67
2023/11/17 02:00:07;;;;;;;13.20;9.77;;;21.70;59.00;;;;;;5050811;28;20484;-68
2023/11/17 02:02:35;;;;;;;15.23;10.13;;;21.60;58.90;;;;;;5050720;28;20842;-67
2023/11/17 02:05:02;;;;;;;16.43;11.03;;;21.60;59.00;;;;;;5050614;28;20504;-67
2023/11/17 02:07:59;;;;;;;15.40;10.23;;;21.60;59.00;;;;;;5050482;28;20508;-70
2023/11/17 02:10:35;;;;;;;17.70;11.27;;;21.60;58.90;;;;;;5050658;28;20382;-66
2023/11/17 02:13:13;;;;;;;15.57;11.40;;;21.60;59.00;;;;;;5050549;28;20887;-67
2023/11/17 02:15:41;;;;;;;14.43;10.10;;;21.60;59.00;;;;;;5049887;28;20394;-66
2023/11/17 02:18:13;;;;;;;15.40;11.00;;;21.60;59.00;;;;;;5050340;28;20425;-67
2023/11/17 02:20:41;;;;;;;14.37;10.37;;;21.60;59.00;;;;;;5050369;28;20445;-67
2023/11/17 02:23:15;;;;;;;14.00;10.10;;;21.60;59.00;;;;;;5050286;28;20428;-68
2023/11/17 02:25:44;;;;;;;14.00;10.30;;;21.60;59.00;;;;;;5050356;28;20452;-69
2023/11/17 02:28:50;;;;;;;15.97;10.50;;;21.60;59.00;;;;;;5050265;28;20500;-68
2023/11/17 02:31:18;;;;;;;14.40;9.90;;;21.60;59.00;;;;;;5050230;28;20931;-67
2023/11/17 02:33:56;;;;;;;14.40;9.43;;;21.60;59.00;;;;;;5050507;28;20934;-68
2023/11/17 02:36:23;;;;;;;14.90;11.00;;;21.60;59.00;;;;;;5050474;28;20433;-67
2023/11/17 02:39:05;;;;;;;15.20;9.73;;;21.60;59.00;;;;;;5050113;28;20427;-68
2023/11/17 02:41:37;;;;;;;15.00;10.33;;;21.60;59.00;;;;;;5050434;28;20528;-68
2023/11/17 02:44:03;;;;;;;13.87;9.40;;;21.60;59.00;;;;;;5050158;28;20392;-67
2023/11/17 02:46:32;;;;;;;16.43;10.70;;;21.60;59.00;;;;;;5050020;28;20428;-67
2023/11/17 02:49:03;;;;;;;13.33;9.37;;;21.60;59.00;;;;;;5050019;28;20437;-69
2023/11/17 02:51:37;;;;;;;14.60;10.37;;;21.60;59.00;;;;;;5050083;28;20754;-68
2023/11/17 02:54:08;;;;;;;16.00;10.80;;;21.50;58.90;;;;;;5050335;28;20811;-68
2023/11/17 02:56:38;;;;;;;15.10;11.97;;;21.50;59.00;;;;;;5049975;28;20417;-68
2023/11/17 02:59:09;;;;;;;14.30;9.63;;;21.50;59.00;;;;;;5048543;28;20428;-68
2023/11/17 03:01:38;;;;;;;13.70;10.27;;;21.50;59.00;;;;;;5049870;28;20441;-69
2023/11/17 03:04:13;;;;;;;14.37;8.90;;;21.50;59.00;;;;;;5049891;28;20417;-68
2023/11/17 03:06:46;;;;;;;13.00;9.47;;;21.50;59.00;;;;;;5049887;28;20463;-66
2023/11/17 03:09:16;;;;;;;13.10;9.40;;;21.50;59.00;;;;;;5049939;28;20420;-67
2023/11/17 03:11:45;;;;;;;12.53;9.57;;;21.50;59.00;;;;;;5050110;28;20405;-67
2023/11/17 03:14:11;;;;;;;13.00;9.83;;;21.50;59.00;;;;;;5048378;28;20417;-67
2023/11/17 03:16:37;;;;;;;16.10;9.70;;;21.50;59.00;;;;;;5049657;28;20440;-68
2023/11/17 03:19:10;;;;;;;13.07;9.47;;;21.50;59.00;;;;;;5049632;28;20436;-68
2023/11/17 03:21:42;;;;;;;13.17;9.50;;;21.50;59.00;;;;;;5049736;28;20244;-67
2023/11/17 03:24:17;;;;;;;14.17;9.27;;;21.50;59.00;;;;;;5049757;28;20397;-68
2023/11/17 03:26:43;;;;;;;14.70;9.57;;;21.50;59.00;;;;;;5052892;28;20425;-68
2023/11/17 03:29:11;;;;;;;13.70;9.17;;;21.50;59.00;;;;;;5053579;28;20419;-66
2023/11/17 03:31:37;;;;;;;10.67;8.20;;;21.50;59.00;;;;;;5053804;28;20417;-67
2023/11/17 03:34:03;;;;;;;13.90;9.93;;;21.50;59.00;;;;;;5053489;28;20953;-68
2023/11/17 03:36:28;;;;;;;10.83;8.47;;;21.50;59.00;;;;;;5053423;28;20190;-67
2023/11/17 03:38:56;;;;;;;15.77;10.27;;;21.50;59.10;;;;;;5052448;28;20257;-66
2023/11/17 03:41:22;;;;;;;18.10;9.70;;;21.50;59.00;;;;;;5053292;28;20198;-67
2023/11/17 03:43:49;;;;;;;11.07;8.30;;;21.50;59.00;;;;;;5053427;28;20494;-68
2023/11/17 03:46:15;;;;;;;15.17;10.40;;;21.50;59.00;;;;;;5053295;28;20433;-67
2023/11/17 03:48:40;;;;;;;9.87;8.70;;;21.50;59.00;;;;;;5052130;28;20412;-68
2023/11/17 03:51:06;;;;;;;12.70;9.10;;;21.50;59.00;;;;;;5053268;28;20245;-66
2023/11/17 03:53:37;;;;;;;12.50;8.90;;;21.50;59.00;;;;;;5053204;28;20168;-68
2023/11/17 03:56:03;;;;;;;13.30;8.60;;;21.50;59.00;;;;;;5053305;28;20452;-68
2023/11/17 03:58:29;;;;;;;12.50;8.70;;;21.50;59.00;;;;;;5053004;28;20500;-67
2023/11/17 04:00:57;;;;;;;11.53;8.90;;;21.50;59.00;;;;;;5053013;28;21039;-65
2023/11/17 04:03:22;;;;;;;13.07;8.50;;;21.50;59.00;;;;;;5051684;28;20226;-69
2023/11/17 04:05:48;;;;;;;11.13;9.00;;;21.50;59.00;;;;;;5052889;28;20437;-67
2023/11/17 04:08:16;;;;;;;13.50;9.00;;;21.50;59.00;;;;;;5052899;28;20254;-68
2023/11/17 04:10:44;;;;;;;8.97;7.50;;;21.50;59.00;;;;;;5052821;28;20189;-68
2023/11/17 04:13:09;;;;;;;11.57;7.90;;;21.50;59.00;;;;;;5052795;28;21110;-67
2023/11/17 04:15:35;;;;;;;13.27;8.60;;;21.40;58.90;;;;;;5052748;28;20488;-68
2023/11/17 04:18:01;;;;;;;11.30;8.50;;;21.50;59.00;;;;;;5052629;28;20229;-67
2023/11/17 04:20:27;;;;;;;11.67;8.17;;;21.50;59.00;;;;;;5052549;28;20258;-67
2023/11/17 04:22:52;;;;;;;11.77;8.90;;;21.50;59.60;;;;;;5052567;28;20963;-68
2023/11/17 04:25:18;;;;;;;14.70;9.10;;;21.50;59.00;;;;;;5052545;28;20765;-68
2023/11/17 04:27:44;;;;;;;12.33;8.40;;;21.40;58.90;;;;;;5052416;28;20194;-68
2023/11/17 04:30:11;;;;;;;11.83;8.03;;;21.50;59.00;;;;;;5052497;28;20170;-67
2023/11/17 04:32:36;;;;;;;11.17;7.77;;;21.40;58.90;;;;;;5052338;28;20181;-68
2023/11/17 04:35:03;;;;;;;11.87;8.17;;;21.40;59.00;;;;;;5052237;28;20414;-67
2023/11/17 04:37:29;;;;;;;9.03;8.10;;;21.50;59.00;;;;;;5051144;28;20290;-67
2023/11/17 04:39:55;;;;;;;12.20;8.13;;;21.40;58.90;;;;;;5052245;28;20489;-67
2023/11/17 04:42:21;;;;;;;8.93;7.00;;;21.40;58.90;;;;;;5052101;28;20427;-68
2023/11/17 04:44:47;;;;;;;12.97;7.93;;;21.40;58.90;;;;;;5052139;28;20406;-67
2023/11/17 04:47:14;;;;;;;11.77;8.97;;;21.40;58.90;;;;;;5050715;28;20306;-68
2023/11/17 04:49:40;;;;;;;11.40;8.00;;;21.40;58.90;;;;;;5052013;28;20417;-69
2023/11/17 04:52:06;;;;;;;9.57;6.87;;;21.40;58.90;;;;;;5052324;28;20789;-68
2023/11/17 04:54:31;;;;;;;12.67;8.23;;;21.40;58.90;;;;;;5051928;28;20405;-68
2023/11/17 04:56:57;;;;;;;11.47;7.60;;;21.40;58.90;;;;;;5051793;28;20775;-67
2023/11/17 04:59:22;;;;;;;10.50;8.80;;;21.40;58.90;;;;;;5052091;28;20175;-68
2023/11/17 05:01:48;;;;;;;12.13;8.93;;;21.40;58.90;;;;;;5051788;28;20203;-67
2023/11/17 05:04:13;;;;;;;12.00;8.00;;;21.40;59.00;;;;;;5051725;28;20633;-68
2023/11/17 05:06:39;;;;;;;10.70;8.07;;;21.40;59.00;;;;;;5051702;28;20222;-66
2023/11/17 05:09:12;;;;;;;11.10;7.53;;;21.40;59.00;;;;;;5051560;28;20163;-68
2023/11/17 05:11:41;;;;;;;13.50;8.53;;;21.40;59.00;;;;;;5051503;28;20152;-68
2023/11/17 05:14:07;;;;;;;12.20;8.10;;;21.40;59.00;;;;;;5051493;28;20420;-67
2023/11/17 05:16:34;;;;;;;11.27;7.80;;;21.30;58.90;;;;;;5051547;28;20433;-68
2023/11/17 05:19:00;;;;;;;10.00;7.13;;;21.30;58.90;;;;;;5051391;28;20311;-68
2023/11/17 05:21:25;;;;;;;9.73;7.80;;;21.30;58.90;;;;;;5051597;28;20484;-67
2023/11/17 05:23:51;;;;;;;9.73;6.53;;;21.30;58.90;;;;;;5051616;28;20767;-65
2023/11/17 05:26:17;;;;;;;7.10;5.80;;;21.40;58.90;;;;;;5051262;28;20183;-68
2023/11/17 05:28:42;;;;;;;6.80;5.67;;;21.30;58.60;;;;;;5049903;28;20414;-67
2023/11/17 05:31:08;;;;;;;8.57;5.73;;;21.30;58.30;;;;;;5051174;28;20209;-67
2023/11/17 05:33:34;;;;;;;8.17;5.30;;;21.30;57.80;;;;;;5051237;28;20175;-67
2023/11/17 05:35:59;;;;;;;7.37;5.23;;;21.30;57.30;;;;;;5051019;28;20190;-66
2023/11/17 05:38:26;;;;;;;6.70;5.03;;;21.20;57.00;;;;;;5051296;28;20179;-68
2023/11/17 05:40:52;;;;;;;10.03;5.83;;;21.20;56.90;;;;;;5051143;28;20732;-67
2023/11/17 05:43:18;;;;;;;8.03;5.97;;;21.20;57.10;;;;;;5050652;28;20414;-68
2023/11/17 05:45:49;;;;;;;10.30;6.17;;;21.20;57.30;;;;;;5051224;28;20230;-67
2023/11/17 05:48:15;;;;;;;6.77;4.90;;;21.20;57.50;;;;;;5050722;28;20160;-69
2023/11/17 05:50:41;;;;;;;6.90;4.97;;;21.20;57.60;;;;;;5051072;28;20865;-67
2023/11/17 05:53:07;;;;;;;6.50;4.67;;;21.20;57.60;;;;;;5050896;28;20497;-67
2023/11/17 05:55:32;;;;;;;7.60;5.30;;;21.20;57.60;;;;;;5050729;28;20175;-68
2023/11/17 05:57:58;;;;;;;5.50;4.27;;;21.20;57.70;;;;;;5050778;28;20179;-68
2023/11/17 06:00:27;;;;;;;8.40;5.33;;;21.20;57.70;;;;;;5050573;28;20175;-67
2023/11/17 06:02:53;;;;;;;6.30;5.40;;;21.20;57.80;;;;;;5050978;28;20179;-68
2023/11/17 06:05:19;;;;;;;8.67;5.57;;;21.30;58.00;;;;;;5050502;28;20455;-68
2023/11/17 06:07:45;;;;;;;7.10;4.67;;;21.20;58.00;;;;;;5050464;28;20440;-67
2023/11/17 06:10:11;;;;;;;8.57;5.10;;;21.20;58.00;;;;;;5050490;28;20406;-68
2023/11/17 06:12:37;;;;;;;6.70;5.00;;;21.20;58.00;;;;;;5050470;28;20643;-66
2023/11/17 06:15:03;;;;;;;8.00;4.90;;;21.30;58.10;;;;;;5051290;28;20732;-68
2023/11/17 06:17:29;;;;;;;9.10;5.80;;;21.30;58.10;;;;;;5052810;28;20229;-68
2023/11/17 06:19:57;;;;;;;6.17;4.60;;;21.30;58.10;;;;;;5062314;28;20432;-69
2023/11/17 06:22:23;;;;;;;10.80;5.53;;;21.30;58.10;;;;;;5069843;28;20205;-67
2023/11/17 06:24:49;;;;;;;7.80;5.03;;;21.30;58.10;;;;;;5069992;28;20408;-67
2023/11/17 06:27:14;;;;;;;6.80;5.23;;;21.30;58.20;;;;;;5070047;28;20894;-67
2023/11/17 06:29:40;;;;;;;7.33;4.60;;;21.30;58.20;;;;;;5070169;28;20198;-69
2023/11/17 06:32:06;;;;;;;7.20;5.03;;;21.30;58.30;;;;;;5070153;28;20581;-67
2023/11/17 06:34:31;;;;;;;7.33;4.77;;;21.30;58.20;;;;;;5070082;28;20304;-68
2023/11/17 06:36:57;;;;;;;6.90;5.27;;;21.30;58.20;;;;;;5070066;28;20447;-67
2023/11/17 06:39:23;;;;;;;7.00;4.97;;;21.30;58.30;;;;;;5070086;28;20255;-68
2023/11/17 06:41:51;;;;;;;7.70;4.80;;;21.30;58.30;;;;;;5069918;28;20228;-68
2023/11/17 06:44:22;;;;;;;6.70;4.60;;;21.30;58.30;;;;;;5069992;28;20551;-68
2023/11/17 06:46:49;;;;;;;6.87;4.77;;;21.30;58.30;;;;;;5069906;28;20439;-69
2023/11/17 06:49:19;;;;;;;7.10;4.47;;;21.30;58.30;;;;;;5069944;28;20779;-68
2023/11/17 06:51:48;;;;;;;5.43;4.30;;;21.30;58.20;;;;;;5070084;28;21057;-69
2023/11/17 06:54:13;;;;;;;6.00;4.60;;;21.30;58.20;;;;;;5069871;28;20412;-67
2023/11/17 06:56:42;;;;;;;5.83;4.73;;;21.30;58.20;;;;;;5069834;28;20428;-68
2023/11/17 06:59:12;;;;;;;4.73;4.27;;;21.30;58.20;;;;;;5069812;28;20170;-69
2023/11/17 07:01:39;;;;;;;6.90;4.93;;;21.30;58.20;;;;;;5072637;28;20473;-69
2023/11/17 07:04:10;;;;;;;5.13;4.60;;;21.30;58.20;;;;;;5073954;28;20409;-68
2023/11/17 07:06:36;;;;;;;6.00;4.00;;;21.30;58.20;;;;;;5073917;28;20428;-68
2023/11/17 07:09:03;;;;;;;7.73;5.00;;;21.30;58.20;;;;;;5073890;28;20412;-68
2023/11/17 07:11:29;;;;;;;6.13;4.50;;;21.30;58.20;;;;;;5073963;28;20412;-69
2023/11/17 07:14:00;;;;;;;6.40;4.87;;;21.30;58.20;;;;;;5074055;28;20784;-68
2023/11/17 07:16:26;;;;;;;7.20;4.50;;;21.30;58.20;;;;;;5074013;28;20446;-67
2023/11/17 07:18:53;;;;;;;6.90;4.97;;;21.30;58.20;;;;;;5073690;28;20436;-65
2023/11/17 07:21:18;;;;;;;7.30;4.67;;;21.30;58.20;;;;;;5073662;28;20480;-68
2023/11/17 07:23:44;;;;;;;6.10;4.50;;;21.30;58.30;;;;;;5073695;28;20899;-68
2023/11/17 07:26:19;;;;;;;6.97;4.73;;;21.30;58.80;;;;;;5073553;28;20197;-67
2023/11/17 07:28:46;;;;;;;4.90;4.30;;;21.30;58.30;;;;;;5073572;28;20705;-67
2023/11/17 07:31:18;;;;;;;8.60;4.37;;;21.30;58.30;;;;;;5073478;28;20409;-67
2023/11/17 07:33:44;;;;;;;6.13;4.17;;;21.30;58.30;;;;;;5073425;28;20828;-69
2023/11/17 07:36:15;;;;;;;6.10;4.90;;;21.30;58.30;;;;;;5073312;28;20856;-68
2023/11/17 07:38:42;;;;;;;7.07;4.27;;;21.30;58.30;;;;;;5073341;28;20442;-69
2023/11/17 07:41:08;;;;;;;5.50;4.40;;;21.30;58.30;;;;;;5071747;28;20456;-68
2023/11/17 07:43:33;;;;;;;5.83;4.50;;;21.30;58.30;;;;;;5073278;28;20405;-65
2023/11/17 07:45:59;;;;;;;6.80;4.90;;;21.30;58.30;;;;;;5073036;28;20190;-67
2023/11/17 07:48:25;;;;;;;4.73;3.70;;;21.30;58.30;;;;;;5073062;28;20205;-67
2023/11/17 07:50:52;;;;;;;4.60;3.50;;;21.30;58.30;;;;;;5073091;28;20174;-68
2023/11/17 07:53:18;;;;;;;4.50;3.53;;;21.30;58.30;;;;;;5073292;28;20420;-69
2023/11/17 07:55:45;;;;;;;6.03;4.03;;;21.40;58.40;;;;;;5072863;28;20438;-69
2023/11/17 07:58:11;;;;;;;5.70;4.00;;;21.40;58.30;;;;;;5072931;28;20806;-67
2023/11/17 08:00:37;;;;;;;4.97;4.20;;;21.40;58.30;;;;;;5072866;28;20417;-67
2023/11/17 08:03:03;;;;;;;5.10;4.00;;;21.40;58.30;;;;;;5072864;28;20285;-69
2023/11/17 08:05:30;;;;;;;4.10;3.50;;;21.30;58.30;;;;;;5072675;28;20408;-68
2023/11/17 08:07:56;;;;;;;5.10;4.20;;;21.40;58.30;;;;;;5072780;28;20412;-68
2023/11/17 08:10:22;;;;;;;5.27;3.93;;;21.30;58.30;;;;;;5072696;28;20412;-68
2023/11/17 08:12:48;;;;;;;5.97;4.33;;;21.30;58.20;;;;;;5072639;28;20789;-68
2023/11/17 08:15:14;;;;;;;6.23;4.47;;;21.30;58.20;;;;;;5072752;28;20163;-68
2023/11/17 08:17:40;;;;;;;7.50;4.50;;;21.40;58.30;;;;;;5072545;28;20204;-67
2023/11/17 08:20:10;;;;;;;4.93;4.03;;;21.30;58.20;;;;;;5072842;28;20496;-67
2023/11/17 08:22:36;;;;;;;5.07;3.83;;;21.30;58.20;;;;;;5072804;28;20221;-68
2023/11/17 08:25:02;;;;;;;5.07;3.50;;;21.30;58.30;;;;;;5072524;28;20407;-68
2023/11/17 08:27:28;;;;;;;5.13;3.70;;;21.30;58.20;;;;;;5072378;28;20519;-69
2023/11/17 08:29:54;;;;;;;5.10;3.50;;;21.30;58.30;;;;;;5070927;28;20562;-68
2023/11/17 08:32:20;;;;;;;5.10;3.77;;;21.30;58.30;;;;;;5072303;28;20171;-68
2023/11/17 08:34:46;;;;;;;4.30;3.50;;;21.30;58.30;;;;;;5072338;28;20415;-68
2023/11/17 08:37:12;;;;;;;7.00;4.60;;;21.30;58.30;;;;;;5072291;28;20948;-67
2023/11/17 08:39:38;;;;;;;3.73;3.33;;;21.30;58.30;;;;;;5072263;28;20478;-68
2023/11/17 08:42:04;;;;;;;6.37;4.27;;;21.30;58.30;;;;;;5072179;28;20452;-67
2023/11/17 08:44:29;;;;;;;4.20;3.80;;;21.30;58.30;;;;;;5072353;28;20182;-68
2023/11/17 08:46:55;;;;;;;5.27;4.13;;;21.30;58.30;;;;;;5071924;28;20633;-69
2023/11/17 08:49:21;;;;;;;3.60;3.13;;;21.30;58.40;;;;;;5070502;28;20679;-68
2023/11/17 08:51:47;;;;;;;3.93;3.50;;;21.30;58.30;;;;;;5071786;28;20224;-67
2023/11/17 08:54:17;;;;;;;6.00;4.17;;;21.30;58.40;;;;;;5072185;28;20626;-68
2023/11/17 08:56:45;;;;;;;5.93;4.50;;;21.30;58.40;;;;;;5072097;28;20998;-69
2023/11/17 08:59:11;;;;;;;5.23;4.20;;;21.30;58.40;;;;;;5072046;28;20918;-69
2023/11/17 09:01:37;;;;;;;4.27;3.40;;;21.30;58.40;;;;;;5071653;28;20448;-68
2023/11/17 09:04:03;;;;;;;5.90;4.07;;;21.30;58.40;;;;;;5071730;28;20575;-69
2023/11/17 09:06:28;;;;;;;4.60;3.53;;;21.30;58.40;;;;;;5071787;28;20436;-68
2023/11/17 09:08:54;;;;;;;6.27;4.70;;;21.30;58.40;;;;;;5071625;28;20181;-68
2023/11/17 09:11:19;;;;;;;4.17;3.33;;;21.30;58.40;;;;;;5071447;28;20543;-68
2023/11/17 09:13:45;;;;;;;6.60;4.10;;;21.30;58.40;;;;;;5071516;28;20209;-69
2023/11/17 09:16:11;;;;;;;4.27;3.17;;;21.30;58.40;;;;;;5071601;28;20194;-68
2023/11/17 09:18:36;;;;;;;4.33;3.37;;;21.30;58.40;;;;;;5071327;28;20198;-68
2023/11/17 09:21:05;;;;;;;5.63;3.90;;;21.30;58.40;;;;;;5071313;28;20201;-67
2023/11/17 09:23:34;;;;;;;5.77;4.10;;;21.30;58.50;;;;;;5069526;28;20261;-68
2023/11/17 09:26:03;;;;;;;5.50;3.87;;;21.30;58.50;;;;;;5071266;28;20798;-68
2023/11/17 09:28:29;;;;;;;4.23;3.50;;;21.30;58.50;;;;;;5071467;28;20496;-68
2023/11/17 09:30:56;;;;;;;5.60;4.20;;;21.30;58.50;;;;;;5071293;28;20949;-67
2023/11/17 09:33:22;;;;;;;7.33;4.27;;;21.30;58.50;;;;;;5071168;28;20451;-68
2023/11/17 09:35:48;;;;;;;3.93;3.30;;;21.30;58.50;;;;;;5071050;28;20935;-68
2023/11/17 09:38:16;;;;;;;5.63;4.63;;;21.30;58.50;;;;;;5071106;28;20177;-68
2023/11/17 09:40:42;;;;;;;3.73;3.10;;;21.30;58.50;;;;;;5071020;28;20501;-67
2023/11/17 09:43:23;;;;;;;13.30;3.93;;;21.40;58.60;;;;;;5070979;28;20436;-69
2023/11/17 09:45:53;;;;;;;7.10;4.30;;;21.40;58.60;;;;;;5070811;28;20431;-67
2023/11/17 09:48:22;;;;;;;6.83;4.10;;;21.40;58.60;;;;;;5070906;28;20915;-68
2023/11/17 09:50:51;;;;;;;5.13;3.83;;;21.40;58.50;;;;;;5070763;28;20467;-68
2023/11/17 09:53:17;;;;;;;6.20;3.57;;;21.40;58.50;;;;;;5070847;28;20440;-68
2023/11/17 09:55:45;;;;;;;4.90;3.33;;;21.40;58.50;;;;;;5070697;28;20420;-69
2023/11/17 09:58:14;;;;;;;5.60;3.20;;;21.50;58.60;;;;;;5070744;28;20411;-66
2023/11/17 10:00:41;;;;;;;4.70;3.50;;;21.40;58.50;;;;;;5070598;28;20473;-67
2023/11/17 10:03:09;;;;;;;4.03;3.63;;;21.50;58.60;;;;;;5070646;28;20408;-67
2023/11/17 10:05:36;;;;;;;5.50;3.00;;;21.50;58.60;;;;;;5070576;28;20401;-67
2023/11/17 10:08:05;;;;;;;6.73;3.20;;;21.50;58.60;;;;;;5070851;28;20408;-68
2023/11/17 10:10:39;;;;;;;6.77;3.67;;;21.50;58.60;;;;;;5070475;28;20488;-67
2023/11/17 10:13:13;;;;;;;5.30;4.00;;;21.50;58.60;;;;;;5070834;28;20403;-69
2023/11/17 10:15:41;;;;;;;4.77;3.00;;;21.50;58.60;;;;;;5070442;28;20389;-68
2023/11/17 10:18:07;;;;;;;3.87;3.00;;;21.50;58.60;;;;;;5070266;28;20432;-67
2023/11/17 10:20:37;;;;;;;5.47;3.63;;;21.50;58.60;;;;;;5070289;28;20404;-68
2023/11/17 10:23:04;;;;;;;4.80;4.23;;;21.50;58.60;;;;;;5070555;28;20408;-68
2023/11/17 10:25:30;;;;;;;4.73;3.40;;;21.50;58.60;;;;;;5070115;28;20407;-67
2023/11/17 10:27:57;;;;;;;5.53;3.83;;;21.50;58.60;;;;;;5070235;28;20436;-68
2023/11/17 10:30:30;;;;;;;6.53;4.10;;;21.50;58.50;;;;;;5070472;28;20404;-69
2023/11/17 10:33:07;;;;;;;4.30;3.70;;;21.50;58.50;;;;;;5070473;28;20896;-68
2023/11/17 10:35:34;;;;;;;4.60;3.33;;;21.50;58.50;;;;;;5069185;28;20903;-69
2023/11/17 10:38:04;;;;;;;4.40;3.30;;;21.50;58.50;;;;;;5070239;28;21033;-68
2023/11/17 10:40:31;;;;;;;5.83;3.17;;;21.50;58.50;;;;;;5070331;28;20416;-67
2023/11/17 10:43:07;;;;;;;5.50;3.43;;;21.50;58.60;;;;;;5070112;28;20836;-67
2023/11/17 10:45:34;;;;;;;4.30;3.43;;;21.50;58.50;;;;;;5070057;28;20514;-69
2023/11/17 10:48:00;;;;;;;5.40;3.63;;;21.50;58.50;;;;;;5070188;28;20414;-68
2023/11/17 10:50:28;;;;;;;6.27;3.53;;;21.50;58.50;;;;;;5070036;28;20764;-68
2023/11/17 10:53:12;;;;;;;4.17;3.20;;;21.50;58.60;;;;;;5070219;28;20523;-68
2023/11/17 10:55:37;;;;;;;4.53;3.13;;;21.50;58.50;;;;;;5069908;28;20396;-68
2023/11/17 10:58:05;;;;;;;5.00;3.77;;;21.60;58.60;;;;;;5070018;28;20415;-68
2023/11/17 11:00:39;;;;;;;4.93;3.00;;;21.60;58.60;;;;;;5069914;28;20197;-68
2023/11/17 11:03:09;;;;;;;5.60;3.13;;;21.60;59.10;;;;;;5070041;28;20484;-68
2023/11/17 11:05:38;;;;;;;3.37;2.40;;;21.60;58.60;;;;;;5069864;28;20385;-68
2023/11/17 11:08:22;;;;;;;6.50;3.40;;;21.60;58.60;;;;;;5070026;28;20421;-67
2023/11/17 11:10:58;;;;;;;3.90;3.20;;;21.60;58.50;;;;;;5068450;28;20452;-67
2023/11/17 11:13:28;;;;;;;4.47;3.47;;;21.60;58.60;;;;;;5069820;28;20768;-68
2023/11/17 11:16:07;;;;;;;4.07;3.50;;;21.60;58.60;;;;;;5068273;28;20548;-66
2023/11/17 11:18:43;;;;;;;3.70;3.00;;;21.60;58.60;;;;;;5069626;28;20439;-69
2023/11/17 11:21:09;;;;;;;4.23;2.83;;;21.60;58.60;;;;;;5069665;28;20447;-68
2023/11/17 11:23:38;;;;;;;4.77;3.07;;;21.60;58.60;;;;;;5069594;28;20888;-66
2023/11/17 11:26:05;;;;;;;6.30;3.23;;;21.60;58.60;;;;;;5069705;28;20432;-67
2023/11/17 11:28:32;;;;;;;5.13;3.23;;;21.60;58.60;;;;;;5069644;28;20842;-68
2023/11/17 11:31:01;;;;;;;4.50;2.87;;;21.60;58.60;;;;;;5069498;28;20409;-68
2023/11/17 11:33:30;;;;;;;3.63;3.23;;;21.60;58.50;;;;;;5069774;28;20416;-67
2023/11/17 11:35:58;;;;;;;4.67;3.40;;;21.60;58.50;;;;;;5069648;28;20443;-67
2023/11/17 11:38:24;;;;;;;3.97;2.83;;;21.60;58.50;;;;;;5069548;28;20790;-68
2023/11/17 11:40:52;;;;;;;3.40;2.60;;;21.60;58.50;;;;;;5069325;28;20456;-68
2023/11/17 11:43:21;;;;;;;3.53;2.63;;;21.60;58.50;;;;;;5069674;28;20415;-69
2023/11/17 11:45:50;;;;;;;4.10;2.47;;;21.60;58.50;;;;;;5069409;28;20459;-69
2023/11/17 11:48:20;;;;;;;4.20;3.13;;;21.60;58.50;;;;;;5073189;28;20412;-69
2023/11/17 11:50:54;;;;;;;5.53;3.20;;;21.60;58.50;;;;;;5073338;28;20396;-67
2023/11/17 11:53:43;;;;;;;3.87;3.10;;;21.60;58.70;;;;;;5073163;28;20403;-69
2023/11/17 11:56:14;;;;;;;3.50;2.63;;;21.60;58.40;;;;;;5073215;28;20428;-66
2023/11/17 11:58:44;;;;;;;4.87;2.77;;;21.60;58.40;;;;;;5073013;28;20960;-67
2023/11/17 12:01:11;;;;;;;3.50;3.00;;;21.60;58.40;;;;;;5072885;28;20456;-66
2023/11/17 12:03:37;;;;;;;4.20;3.20;;;21.60;58.50;;;;;;5072872;28;20401;-67
2023/11/17 12:06:04;;;;;;;4.40;3.30;;;21.60;58.50;;;;;;5072757;28;20430;-68
2023/11/17 12:08:31;;;;;;;3.67;2.60;;;21.60;58.50;;;;;;5072709;28;20174;-68
2023/11/17 12:11:06;;;;;;;3.50;2.67;;;21.50;58.40;;;;;;5072776;28;20891;-69
2023/11/17 12:13:39;;;;;;;3.97;2.50;;;21.60;58.40;;;;;;5072727;28;20485;-68
2023/11/17 12:16:09;;;;;;;4.37;3.03;;;21.60;58.50;;;;;;5072671;28;20440;-68
2023/11/17 12:18:35;;;;;;;3.60;2.60;;;21.50;58.40;;;;;;5072418;28;20451;-68
2023/11/17 12:21:16;;;;;;;5.47;3.47;;;21.60;58.40;;;;;;5072569;28;20456;-68
2023/11/17 12:24:18;;;;;;;4.03;3.20;;;21.60;58.40;;;;;;5072716;28;20212;-68
2023/11/17 12:26:46;;;;;;;3.27;2.60;;;21.60;58.40;;;;;;5071599;28;21026;-69
2023/11/17 12:29:32;;;;;;;3.57;2.87;;;21.50;58.40;;;;;;5072361;28;20782;-68
2023/11/17 12:32:04;;;;;;;3.50;2.90;;;21.50;58.40;;;;;;5072364;28;20408;-67
2023/11/17 12:34:30;;;;;;;3.13;2.40;;;21.50;58.40;;;;;;5072265;28;20784;-69
2023/11/17 12:37:00;;;;;;;4.00;2.90;;;21.50;58.40;;;;;;5072168;28;20934;-68
2023/11/17 12:39:39;;;;;;;5.23;2.70;;;21.50;58.40;;;;;;5072492;28;20427;-69
2023/11/17 12:42:14;;;;;;;3.40;2.47;;;21.50;58.40;;;;;;5072085;28;20488;-68
2023/11/17 12:44:40;;;;;;;4.87;3.00;;;21.50;58.40;;;;;;5072150;28;20384;-67